Wanette, OK

3:39 PM CDT on July 28, 2016 (GMT -0500)
NonFedAWOS | | Change Station

Elev 1086 ft 35.03 °N, 97.23 °W | Updated 44 minutes ago

Scattered Clouds
Scattered Clouds
91 °F
Feels Like 102 °F
N
7
Wind Variable Wind from SSE
Gusts 0.0 mph

Today
High -- | Low -- °F
--% Chance of Precip.
Yesterday
High -- | Low -- °F
Precip. -- in
Pressure 29.92 in
Visibility 10.0 miles
Clouds Scattered Clouds 6000 ft
Scattered Clouds 10000 ft
Heat Index 102 °F
Dew Point 75 °F
Humidity 59%
Rainfall in
Snow Depth Not available.
6:35 AM 8:33 PM
Waning Crescent, 29% visible
METAR KPVJ 282035Z AUTO 00000KT 10SM SCT060 SCT100 35/22 A2992 RMK AO2 T03510218
Pressure 29.92 in
Visibility 10.0 miles
Clouds Scattered Clouds 6000 ft
Scattered Clouds 10000 ft
Heat Index 102 °F
Dew Point 75 °F
Humidity 59%
Rainfall in
Snow Depth Not available.
6:35 AM 8:33 PM
Waning Crescent, 29% visible
METAR KPVJ 282035Z AUTO 00000KT 10SM SCT060 SCT100 35/22 A2992 RMK AO2 T03510218

10-Day Weather Forecast

Almanac

Astronomy

Jul. 28, 2016 Rise Set
Actual Time
Civil Twilight
Nautical Twilight
Astronomical Twilight
Moon
Length of Visible Light
Length of Day
Tomorrow will be .
, % of the Moon is Illuminated

Today's Extremes

State Highs State Lows

Community

WunderPhotos

Upload Photos

1,928,204 photos uploaded!

WunderBlog® & News

Nearby

Air Quality

  Air Quality AQ Index Pollutant
Not available.

Snow Depth

Station Depth Elevation

Earthquake Activity

City Distance Mag. Time & Date
Minimum magnitude displayed is 2.5.

Coastal Water Temperatures

Place Temperature

Stations

Nearby Weather Stations

Station Location Temp. Windchill Dew Point Humidity Wind Precip. Elev Updated Type
                   

Watches & Warnings

There are currently no watches in effect.